createdAt,value
2018-12-06T00:01:54.324Z,91.40
2018-12-06T00:04:16.659Z,91.30
2018-12-06T00:06:39.104Z,91.20
2018-12-06T00:09:01.445Z,91.30
2018-12-06T00:11:23.764Z,91.30
2018-12-06T00:13:46.064Z,91.30
2018-12-06T00:16:08.752Z,91.30
2018-12-06T00:18:31.027Z,91.40
2018-12-06T00:20:53.347Z,91.40
2018-12-06T00:23:15.618Z,91.40
2018-12-06T00:25:37.948Z,91.40
2018-12-06T00:28:00.227Z,91.50
2018-12-06T00:30:34.523Z,91.50
2018-12-06T00:32:56.878Z,91.40
2018-12-06T00:35:19.135Z,91.50
2018-12-06T00:37:41.409Z,91.40
2018-12-06T00:40:03.848Z,91.40
2018-12-06T00:42:26.279Z,91.40
2018-12-06T00:44:53.238Z,91.50
2018-12-06T00:47:15.524Z,91.50
2018-12-06T00:49:37.898Z,91.50
2018-12-06T00:52:00.156Z,91.50
2018-12-06T00:54:22.440Z,91.50
2018-12-06T00:56:44.744Z,91.40
2018-12-06T00:59:07.016Z,91.70
2018-12-06T01:01:29.339Z,91.40
2018-12-06T01:03:51.611Z,91.40
2018-12-06T01:06:13.953Z,91.40
2018-12-06T01:08:36.212Z,91.40
2018-12-06T01:10:58.521Z,91.40
2018-12-06T01:13:20.789Z,91.40
2018-12-06T01:15:43.098Z,91.90
2018-12-06T01:18:05.432Z,91.70
2018-12-06T01:20:27.735Z,91.90
2018-12-06T01:22:49.993Z,92.20
2018-12-06T01:25:12.330Z,92.30
2018-12-06T01:27:34.576Z,92.50
2018-12-06T01:29:56.931Z,92.60
2018-12-06T01:32:19.198Z,92.70
2018-12-06T01:34:41.471Z,92.80
2018-12-06T01:37:03.706Z,92.80
2018-12-06T01:39:25.950Z,92.80
2018-12-06T01:41:48.181Z,93.00
2018-12-06T01:44:10.486Z,93.00
2018-12-06T01:46:32.728Z,93.10
2018-12-06T01:48:54.990Z,93.10
2018-12-06T01:51:17.243Z,93.20
2018-12-06T01:53:39.576Z,93.30
2018-12-06T01:56:01.794Z,93.40
2018-12-06T01:58:24.100Z,93.50
2018-12-06T02:00:46.345Z,93.60
2018-12-06T02:03:08.620Z,93.60
2018-12-06T02:05:30.850Z,93.60
2018-12-06T02:07:53.092Z,93.70
2018-12-06T02:10:15.375Z,93.70
2018-12-06T02:12:37.663Z,93.80
2018-12-06T02:14:59.953Z,93.80
2018-12-06T02:17:22.220Z,93.60
2018-12-06T02:19:44.551Z,93.50
2018-12-06T02:22:06.884Z,93.50
2018-12-06T02:24:29.208Z,93.50
2018-12-06T02:26:51.484Z,93.60
2018-12-06T02:29:13.742Z,93.70
2018-12-06T02:31:36.016Z,93.80
2018-12-06T02:33:58.323Z,93.90
2018-12-06T02:36:20.589Z,94.00
2018-12-06T02:38:42.939Z,94.10
2018-12-06T02:41:05.263Z,94.30
2018-12-06T02:43:27.560Z,94.40
2018-12-06T02:45:49.833Z,94.50
2018-12-06T02:48:12.123Z,94.50
2018-12-06T02:50:34.379Z,94.60
2018-12-06T02:52:56.635Z,94.50
2018-12-06T02:55:18.874Z,94.60
2018-12-06T02:57:41.157Z,94.60
2018-12-06T03:00:03.487Z,94.70
2018-12-06T03:02:25.825Z,94.80
2018-12-06T03:04:48.082Z,94.90
2018-12-06T03:07:10.303Z,95.10
2018-12-06T03:09:32.564Z,95.20
2018-12-06T03:11:54.800Z,95.20
2018-12-06T03:14:17.072Z,95.20
2018-12-06T03:16:39.389Z,95.20
2018-12-06T03:19:01.684Z,95.30
2018-12-06T03:21:23.956Z,95.50
2018-12-06T03:23:46.282Z,95.50
2018-12-06T03:26:08.524Z,95.50
2018-12-06T03:28:30.809Z,95.60
2018-12-06T03:30:53.168Z,95.60
2018-12-06T03:33:15.569Z,95.70
2018-12-06T03:35:37.808Z,95.80
2018-12-06T03:38:00.105Z,95.80
2018-12-06T03:40:22.319Z,95.90
2018-12-06T03:42:44.647Z,96.00
2018-12-06T03:45:06.864Z,96.00
2018-12-06T03:47:29.138Z,96.10
2018-12-06T03:49:51.392Z,96.20
2018-12-06T03:52:13.758Z,96.40
2018-12-06T03:54:36.190Z,96.40
2018-12-06T03:56:58.469Z,96.40
2018-12-06T03:59:20.850Z,96.50
2018-12-06T04:01:43.147Z,96.50
2018-12-06T04:04:05.525Z,96.50
2018-12-06T04:06:27.859Z,96.60
2018-12-06T04:08:50.206Z,96.60
2018-12-06T04:11:12.532Z,96.70
2018-12-06T04:13:34.782Z,96.80
2018-12-06T04:15:57.050Z,96.90
2018-12-06T04:18:19.405Z,96.90
2018-12-06T04:20:41.712Z,96.90
2018-12-06T04:23:04.107Z,96.90
2018-12-06T04:25:26.398Z,96.90
2018-12-06T04:27:48.723Z,97.10
2018-12-06T04:30:11.076Z,97.00
2018-12-06T04:32:33.403Z,97.00
2018-12-06T04:34:55.786Z,97.10
2018-12-06T04:37:18.068Z,97.10
2018-12-06T04:39:40.406Z,97.10
2018-12-06T04:42:02.684Z,97.10
2018-12-06T04:44:25.041Z,97.10
2018-12-06T04:46:47.374Z,97.00
2018-12-06T04:49:09.623Z,97.00
2018-12-06T04:51:31.892Z,97.00
2018-12-06T04:53:54.155Z,97.00
2018-12-06T04:56:16.395Z,97.00
2018-12-06T04:58:38.671Z,97.00
2018-12-06T05:01:00.929Z,96.90
2018-12-06T05:03:23.244Z,96.90
2018-12-06T05:05:45.555Z,96.70
2018-12-06T05:08:07.775Z,96.70
2018-12-06T05:10:30.032Z,96.60
2018-12-06T05:12:52.320Z,96.60
2018-12-06T05:15:14.642Z,96.60
2018-12-06T05:17:36.894Z,96.60
2018-12-06T05:19:59.258Z,96.70
2018-12-06T05:22:21.567Z,96.70
2018-12-06T05:24:43.861Z,96.70
2018-12-06T05:27:06.147Z,96.70
2018-12-06T05:29:28.539Z,96.70
2018-12-06T05:31:50.845Z,96.70
2018-12-06T05:34:13.139Z,96.80
2018-12-06T05:36:35.456Z,96.80
2018-12-06T05:38:57.758Z,96.80
2018-12-06T05:41:20.054Z,96.80
2018-12-06T05:43:42.315Z,96.90
2018-12-06T05:46:04.600Z,96.90
2018-12-06T05:48:27.008Z,96.90
2018-12-06T05:50:49.321Z,96.90
2018-12-06T05:53:11.632Z,96.80
2018-12-06T05:55:33.912Z,96.80
2018-12-06T05:57:56.160Z,96.80
2018-12-06T06:00:18.415Z,96.80
2018-12-06T06:02:40.676Z,96.80
2018-12-06T06:05:03.190Z,96.80
2018-12-06T06:07:25.456Z,96.70
2018-12-06T06:09:47.743Z,96.70
2018-12-06T06:12:10.044Z,96.80
2018-12-06T06:14:32.264Z,96.80
2018-12-06T06:16:54.493Z,96.80
2018-12-06T06:19:16.742Z,96.70
2018-12-06T06:21:39.011Z,96.70
2018-12-06T06:24:01.298Z,96.60
2018-12-06T06:26:23.544Z,96.60
2018-12-06T06:28:45.789Z,96.60
2018-12-06T06:31:08.080Z,96.60
2018-12-06T06:33:30.347Z,96.60
2018-12-06T06:35:52.612Z,96.60
2018-12-06T06:38:14.891Z,96.60
2018-12-06T06:40:37.172Z,96.70
2018-12-06T06:42:59.479Z,96.70
2018-12-06T06:45:21.774Z,96.80
2018-12-06T06:47:44.025Z,96.80
2018-12-06T06:50:06.253Z,96.80
2018-12-06T06:52:28.536Z,96.90
2018-12-06T06:54:50.785Z,96.90
2018-12-06T06:57:13.117Z,96.90
2018-12-06T06:59:35.382Z,96.80
2018-12-06T07:01:57.650Z,96.80
2018-12-06T07:04:19.927Z,96.80
2018-12-06T07:06:43.038Z,96.80
2018-12-06T07:09:06.587Z,96.80
2018-12-06T07:11:28.822Z,96.80
2018-12-06T07:13:51.112Z,96.70
2018-12-06T07:16:13.371Z,96.70
2018-12-06T07:18:35.624Z,96.70
2018-12-06T07:20:57.978Z,96.60
2018-12-06T07:23:20.252Z,96.70
2018-12-06T07:25:46.305Z,96.70
2018-12-06T07:28:04.841Z,96.70
2018-12-06T07:30:27.117Z,96.70
2018-12-06T07:32:49.414Z,96.80
2018-12-06T07:35:11.781Z,96.80
2018-12-06T07:37:34.077Z,96.80
2018-12-06T07:39:56.380Z,96.80
2018-12-06T07:42:18.700Z,96.80
2018-12-06T07:44:41.008Z,96.80
2018-12-06T07:47:03.450Z,96.80
2018-12-06T07:49:25.804Z,96.70
2018-12-06T07:51:48.204Z,96.70
2018-12-06T07:54:10.689Z,96.60
2018-12-06T07:56:33.003Z,96.60
2018-12-06T07:58:55.324Z,96.60
2018-12-06T08:01:17.695Z,96.60
2018-12-06T08:03:40.014Z,96.50
2018-12-06T08:06:02.380Z,96.50
2018-12-06T08:08:24.727Z,96.50
2018-12-06T08:10:47.083Z,96.50
2018-12-06T08:13:09.381Z,96.50
2018-12-06T08:15:31.684Z,96.50
2018-12-06T08:17:54.181Z,96.50
2018-12-06T08:20:16.584Z,96.50
2018-12-06T08:22:39.037Z,96.40
2018-12-06T08:25:01.462Z,96.40
2018-12-06T08:27:23.930Z,96.50
2018-12-06T08:29:46.375Z,96.60
2018-12-06T08:32:08.814Z,96.70
2018-12-06T08:34:31.384Z,96.70
2018-12-06T08:36:54.166Z,96.80
2018-12-06T08:39:16.783Z,96.80
2018-12-06T08:41:39.281Z,96.90
2018-12-06T08:44:02.166Z,96.90
2018-12-06T08:46:24.567Z,96.90
2018-12-06T08:48:47.034Z,96.90
2018-12-06T08:51:09.936Z,96.90
2018-12-06T08:53:32.368Z,96.90
2018-12-06T08:57:24.290Z,96.90
2018-12-06T08:59:46.763Z,97.00
2018-12-06T09:02:09.257Z,97.00
2018-12-06T09:04:31.697Z,97.00
2018-12-06T09:06:54.150Z,97.00
2018-12-06T09:09:16.865Z,96.90
2018-12-06T09:11:39.188Z,97.10
2018-12-06T09:14:01.601Z,97.10
2018-12-06T09:16:23.976Z,97.10
2018-12-06T09:18:46.433Z,97.00
2018-12-06T09:21:08.720Z,97.00
2018-12-06T09:23:31.029Z,97.20
2018-12-06T09:25:53.312Z,96.60
2018-12-06T09:28:15.549Z,96.60
2018-12-06T09:30:37.880Z,96.60
2018-12-06T09:33:00.392Z,96.60
2018-12-06T09:35:22.868Z,96.60
2018-12-06T09:37:45.334Z,96.70
2018-12-06T09:40:07.621Z,96.70
2018-12-06T09:42:29.924Z,96.70
2018-12-06T09:44:52.225Z,96.60
2018-12-06T09:47:14.567Z,96.60
2018-12-06T09:49:37.023Z,96.60
2018-12-06T09:51:59.465Z,96.60
2018-12-06T09:54:21.935Z,96.60
2018-12-06T09:56:45.137Z,96.60
2018-12-06T09:59:07.733Z,96.50
2018-12-06T10:01:29.993Z,96.60
2018-12-06T10:03:52.347Z,96.50
2018-12-06T10:06:14.679Z,96.50
2018-12-06T10:08:36.987Z,96.50
2018-12-06T10:10:59.288Z,96.30
2018-12-06T10:13:21.804Z,96.30
2018-12-06T10:15:44.044Z,96.30
2018-12-06T10:18:06.472Z,96.20
2018-12-06T10:20:28.865Z,96.10
2018-12-06T10:22:51.263Z,96.10
2018-12-06T10:25:13.689Z,96.10
2018-12-06T10:27:36.155Z,96.00
2018-12-06T10:29:58.745Z,96.10
2018-12-06T10:32:21.275Z,96.10
2018-12-06T10:34:45.349Z,96.00
2018-12-06T10:37:06.237Z,95.80
2018-12-06T10:39:28.772Z,95.80
2018-12-06T10:41:51.247Z,95.70
2018-12-06T10:44:24.763Z,95.60
2018-12-06T10:46:47.126Z,95.70
2018-12-06T10:49:09.702Z,95.50
2018-12-06T10:51:40.756Z,95.00
2018-12-06T10:54:03.268Z,94.90
2018-12-06T10:56:25.866Z,95.00
2018-12-06T10:58:48.221Z,95.10
2018-12-06T11:01:10.850Z,95.10
2018-12-06T11:03:38.032Z,95.00
2018-12-06T11:06:00.529Z,95.00
2018-12-06T11:08:23.253Z,95.10
2018-12-06T11:10:45.827Z,94.20
2018-12-06T11:13:08.544Z,94.30
2018-12-06T11:15:31.049Z,94.60
2018-12-06T11:17:53.735Z,94.60
2018-12-06T11:20:16.405Z,94.50
2018-12-06T11:22:38.902Z,94.60
2018-12-06T11:25:01.311Z,94.30
2018-12-06T11:27:23.849Z,94.40
2018-12-06T11:29:46.314Z,93.70
2018-12-06T11:32:08.678Z,93.90
2018-12-06T11:34:32.219Z,94.00
2018-12-06T11:36:54.592Z,94.00
2018-12-06T11:39:16.857Z,93.90
2018-12-06T11:41:42.979Z,93.70
2018-12-06T11:44:01.344Z,94.20
2018-12-06T11:46:23.613Z,94.10
2018-12-06T11:48:45.893Z,94.20
2018-12-06T11:51:08.189Z,94.40
2018-12-06T11:53:30.445Z,94.50
2018-12-06T11:55:52.780Z,94.60
2018-12-06T11:58:15.264Z,94.90
2018-12-06T12:00:37.497Z,94.80
2018-12-06T12:02:59.786Z,94.50
2018-12-06T12:05:22.075Z,94.60
2018-12-06T12:07:44.365Z,94.50
2018-12-06T12:10:06.641Z,94.50
2018-12-06T12:12:28.907Z,94.40
2018-12-06T12:14:51.240Z,94.20
2018-12-06T12:17:13.524Z,94.30
2018-12-06T12:19:35.824Z,93.90
2018-12-06T12:21:58.098Z,94.00
2018-12-06T12:24:20.392Z,93.90
2018-12-06T12:26:42.617Z,93.90
2018-12-06T12:29:04.918Z,93.50
2018-12-06T12:31:27.267Z,93.70
2018-12-06T12:33:49.528Z,93.50
2018-12-06T12:36:11.840Z,93.20
2018-12-06T12:38:34.090Z,93.10
2018-12-06T12:40:56.392Z,93.00
2018-12-06T12:43:18.679Z,93.00
2018-12-06T12:45:40.913Z,92.80
2018-12-06T12:48:03.242Z,92.70
2018-12-06T12:50:25.503Z,92.10
2018-12-06T12:52:47.776Z,92.10
2018-12-06T12:55:10.060Z,91.70
2018-12-06T12:57:32.701Z,91.80
2018-12-06T12:59:55.119Z,91.80
2018-12-06T13:02:17.312Z,91.90
2018-12-06T13:04:39.617Z,92.10
2018-12-06T13:07:09.112Z,92.20
2018-12-06T13:09:31.361Z,92.00
2018-12-06T13:11:53.600Z,91.70
2018-12-06T13:14:15.816Z,91.40
2018-12-06T13:16:38.054Z,91.50
2018-12-06T13:19:00.355Z,91.30
2018-12-06T13:21:22.605Z,91.20
2018-12-06T13:23:44.876Z,90.50
2018-12-06T13:26:07.134Z,90.40
2018-12-06T13:28:29.415Z,90.40
2018-12-06T13:30:51.673Z,90.70
2018-12-06T13:33:13.912Z,90.60
2018-12-06T13:35:36.163Z,90.10
2018-12-06T13:37:58.418Z,89.20
2018-12-06T13:40:20.694Z,89.60
2018-12-06T13:42:43.004Z,90.20
2018-12-06T13:45:05.492Z,89.20
2018-12-06T13:47:27.852Z,89.40
2018-12-06T13:49:50.198Z,90.00
2018-12-06T13:52:12.582Z,88.30
2018-12-06T13:54:34.911Z,88.60
2018-12-06T13:56:57.241Z,89.20
2018-12-06T13:59:19.607Z,88.40
2018-12-06T14:01:42.047Z,88.90
2018-12-06T14:04:04.487Z,88.30
2018-12-06T14:06:26.824Z,88.10
2018-12-06T14:08:49.095Z,87.30
2018-12-06T14:11:11.397Z,87.00
2018-12-06T14:13:33.694Z,87.90
2018-12-06T14:15:55.927Z,86.30
2018-12-06T14:18:18.239Z,86.80
2018-12-06T14:20:40.515Z,87.40
2018-12-06T14:23:02.763Z,87.50
2018-12-06T14:25:25.073Z,87.40
2018-12-06T14:27:47.291Z,87.80
2018-12-06T14:30:09.543Z,88.00
2018-12-06T14:32:31.824Z,87.50
2018-12-06T14:34:54.076Z,87.50
2018-12-06T14:37:16.364Z,88.00
2018-12-06T14:39:38.596Z,88.20
2018-12-06T14:42:00.869Z,88.10
2018-12-06T14:44:23.168Z,87.50
2018-12-06T14:46:45.420Z,87.70
2018-12-06T14:49:07.676Z,88.20
2018-12-06T14:51:29.931Z,87.30
2018-12-06T14:53:52.189Z,87.30
2018-12-06T14:56:14.387Z,87.30
2018-12-06T14:58:36.685Z,86.50
2018-12-06T15:00:58.960Z,87.10
2018-12-06T15:03:21.255Z,86.80
2018-12-06T15:05:43.573Z,87.50
2018-12-06T15:08:05.843Z,87.40
2018-12-06T15:10:28.164Z,88.00
2018-12-06T15:12:50.448Z,87.70
2018-12-06T15:15:12.768Z,87.30
2018-12-06T15:17:35.116Z,87.50
2018-12-06T15:19:57.476Z,86.60
2018-12-06T15:22:19.843Z,87.20
2018-12-06T15:24:42.117Z,88.00
2018-12-06T15:27:04.371Z,88.20
2018-12-06T15:29:26.694Z,89.10
2018-12-06T15:31:48.986Z,88.80
2018-12-06T15:34:11.364Z,89.20
2018-12-06T15:36:33.662Z,88.70
2018-12-06T15:38:55.930Z,89.30
2018-12-06T15:41:18.207Z,89.60
2018-12-06T15:43:40.436Z,90.00
2018-12-06T15:46:02.744Z,90.00
2018-12-06T15:48:25.011Z,89.70
2018-12-06T15:50:47.329Z,89.30
2018-12-06T15:53:09.659Z,89.50
2018-12-06T15:55:32.010Z,89.80
2018-12-06T15:57:54.373Z,90.00
2018-12-06T16:00:16.641Z,89.90
2018-12-06T16:02:38.938Z,90.00
2018-12-06T16:05:01.306Z,89.90
2018-12-06T16:07:23.675Z,89.70
2018-12-06T16:09:45.994Z,90.00
2018-12-06T16:12:08.325Z,90.10
2018-12-06T16:14:30.649Z,90.20
2018-12-06T16:16:53.508Z,90.30
2018-12-06T16:19:15.908Z,90.30
2018-12-06T16:21:38.319Z,90.20
2018-12-06T16:24:00.652Z,90.30
2018-12-06T16:26:22.952Z,90.30
2018-12-06T16:28:45.303Z,90.40
2018-12-06T16:31:07.675Z,90.50
2018-12-06T16:33:30.021Z,90.40
2018-12-06T16:35:52.320Z,90.30
2018-12-06T16:38:14.684Z,90.20
2018-12-06T16:40:37.011Z,90.30
2018-12-06T16:42:59.268Z,90.20
2018-12-06T16:45:21.600Z,90.30
2018-12-06T16:47:43.941Z,90.30
2018-12-06T16:50:07.491Z,90.30
2018-12-06T16:52:29.846Z,90.40
2018-12-06T16:54:52.168Z,90.40
2018-12-06T16:57:14.484Z,90.50
2018-12-06T16:59:36.903Z,90.60
2018-12-06T17:01:59.238Z,90.60
2018-12-06T17:04:21.561Z,90.70
2018-12-06T17:06:43.890Z,90.70
2018-12-06T17:09:06.801Z,90.70
2018-12-06T17:11:29.145Z,90.70
2018-12-06T17:13:51.440Z,90.70
2018-12-06T17:16:13.778Z,90.80
2018-12-06T17:18:36.156Z,91.00
2018-12-06T17:20:58.423Z,91.00
2018-12-06T17:23:20.744Z,91.10
2018-12-06T17:25:43.127Z,91.10
2018-12-06T17:28:05.459Z,91.20
2018-12-06T17:30:27.757Z,91.20
2018-12-06T17:32:50.054Z,91.20
2018-12-06T17:35:12.344Z,91.30
2018-12-06T17:37:34.650Z,91.20
2018-12-06T17:39:56.986Z,91.30
2018-12-06T17:42:19.333Z,91.30
2018-12-06T17:44:41.665Z,91.30
2018-12-06T17:47:04.000Z,91.40
2018-12-06T17:49:26.334Z,91.40
2018-12-06T17:51:48.647Z,91.30
2018-12-06T17:54:10.983Z,91.30
2018-12-06T17:56:33.306Z,91.20
2018-12-06T17:58:55.697Z,91.10
2018-12-06T18:01:18.135Z,91.00
2018-12-06T18:03:40.482Z,91.00
2018-12-06T18:06:02.794Z,91.00
2018-12-06T18:08:25.342Z,91.00
2018-12-06T18:10:47.680Z,91.00
2018-12-06T18:13:10.092Z,91.00
2018-12-06T18:15:32.457Z,91.10
2018-12-06T18:17:54.794Z,91.00
2018-12-06T18:20:17.151Z,91.00
2018-12-06T18:22:39.442Z,91.00
2018-12-06T18:25:01.726Z,91.10
2018-12-06T18:27:23.998Z,91.20
2018-12-06T18:29:46.233Z,91.10
2018-12-06T18:32:08.509Z,91.10
2018-12-06T18:34:30.819Z,91.10
2018-12-06T18:36:53.055Z,91.20
2018-12-06T18:39:15.315Z,91.10
2018-12-06T18:41:37.594Z,91.00
2018-12-06T18:43:59.900Z,91.00
2018-12-06T18:46:22.296Z,90.90
2018-12-06T18:48:44.596Z,91.00
2018-12-06T18:51:06.950Z,90.90
2018-12-06T18:53:29.302Z,90.90
2018-12-06T18:55:51.547Z,90.90
2018-12-06T18:58:13.812Z,91.10
2018-12-06T19:00:36.091Z,91.10
2018-12-06T19:02:58.356Z,91.00
2018-12-06T19:05:20.677Z,90.90
2018-12-06T19:07:42.926Z,90.90
2018-12-06T19:10:05.193Z,90.80
2018-12-06T19:12:27.469Z,90.80
2018-12-06T19:14:49.738Z,90.80
2018-12-06T19:17:12.103Z,90.90
2018-12-06T19:19:34.375Z,90.70
2018-12-06T19:21:56.630Z,90.70
2018-12-06T19:25:43.477Z,90.70
2018-12-06T19:28:05.791Z,90.70
2018-12-06T19:30:28.151Z,90.70
2018-12-06T19:32:57.714Z,90.70
2018-12-06T19:35:12.884Z,90.80
2018-12-06T19:37:35.158Z,90.70
2018-12-06T19:39:57.731Z,90.60
2018-12-06T19:42:20.083Z,90.80
2018-12-06T19:44:42.451Z,90.80
2018-12-06T19:47:04.775Z,90.70
2018-12-06T19:49:27.075Z,90.70
2018-12-06T19:51:49.375Z,90.70
2018-12-06T19:54:11.714Z,90.60
2018-12-06T19:56:34.030Z,90.50
2018-12-06T19:58:56.381Z,90.40
2018-12-06T20:01:18.627Z,90.50
2018-12-06T20:03:40.993Z,90.50
2018-12-06T20:06:03.320Z,90.60
2018-12-06T20:08:25.580Z,90.80
2018-12-06T20:10:47.889Z,90.90
2018-12-06T20:13:10.271Z,90.70
2018-12-06T20:15:32.559Z,90.50
2018-12-06T20:17:54.867Z,90.60
2018-12-06T20:20:23.321Z,90.70
2018-12-06T20:22:39.517Z,90.30
2018-12-06T20:25:02.136Z,90.40
2018-12-06T20:27:24.576Z,90.50
2018-12-06T20:29:46.858Z,90.60
2018-12-06T20:32:14.771Z,90.50
2018-12-06T20:34:31.509Z,90.60
2018-12-06T20:36:53.735Z,90.50
2018-12-06T20:39:15.982Z,90.50
2018-12-06T20:41:38.371Z,90.50
2018-12-06T20:44:00.734Z,90.30
2018-12-06T20:46:22.976Z,90.20
2018-12-06T20:48:45.248Z,90.10
2018-12-06T20:51:07.551Z,90.00
2018-12-06T20:53:29.832Z,90.10
2018-12-06T20:55:52.107Z,90.00
2018-12-06T20:58:15.218Z,89.90
2018-12-06T21:00:36.688Z,89.90
2018-12-06T21:02:59.032Z,89.90
2018-12-06T21:05:21.440Z,89.70
2018-12-06T21:07:43.787Z,90.00
2018-12-06T21:10:06.182Z,89.90
2018-12-06T21:12:28.493Z,89.80
2018-12-06T21:14:50.796Z,89.60
2018-12-06T21:17:13.102Z,89.40
2018-12-06T21:19:35.391Z,89.40
2018-12-06T21:21:57.686Z,89.50
2018-12-06T21:24:20.033Z,89.30
2018-12-06T21:26:42.403Z,89.20
2018-12-06T21:29:04.710Z,89.20
2018-12-06T21:31:26.973Z,89.20
2018-12-06T21:33:49.319Z,89.50
2018-12-06T21:36:11.647Z,89.50
2018-12-06T21:38:33.959Z,89.30
2018-12-06T21:40:56.458Z,89.30
2018-12-06T21:43:18.762Z,89.10
2018-12-06T21:45:41.031Z,89.10
2018-12-06T21:48:03.334Z,88.30
2018-12-06T21:50:25.633Z,88.70
2018-12-06T21:52:47.921Z,88.80
2018-12-06T21:55:10.282Z,88.10
2018-12-06T21:57:32.655Z,88.20
2018-12-06T21:59:55.007Z,88.10
2018-12-06T22:02:26.096Z,88.30
2018-12-06T22:04:48.433Z,88.30
2018-12-06T22:07:10.756Z,88.70
2018-12-06T22:09:33.087Z,88.70
2018-12-06T22:11:55.393Z,88.80
2018-12-06T22:14:17.683Z,88.90
2018-12-06T22:16:40.024Z,88.80
2018-12-06T22:19:02.311Z,88.90
2018-12-06T22:21:24.662Z,88.90
2018-12-06T22:23:46.995Z,88.60
2018-12-06T22:26:09.276Z,88.40
2018-12-06T22:28:34.243Z,88.40
2018-12-06T22:30:53.905Z,88.70
2018-12-06T22:33:16.215Z,88.50
2018-12-06T22:35:38.536Z,88.20
2018-12-06T22:38:00.808Z,88.30
2018-12-06T22:40:23.119Z,87.90
2018-12-06T22:42:45.440Z,88.10
2018-12-06T22:45:19.105Z,88.20
2018-12-06T22:47:41.422Z,88.30
2018-12-06T22:50:03.891Z,88.70
2018-12-06T22:52:26.215Z,88.40
2018-12-06T22:54:49.707Z,88.10
2018-12-06T22:57:10.867Z,87.80
2018-12-06T22:59:33.142Z,88.30
2018-12-06T23:01:55.423Z,88.20
2018-12-06T23:04:17.708Z,88.30
2018-12-06T23:06:39.867Z,88.20
2018-12-06T23:09:02.270Z,88.10
2018-12-06T23:11:24.520Z,88.00
2018-12-06T23:13:46.819Z,87.70
2018-12-06T23:16:09.076Z,87.90
2018-12-06T23:18:31.335Z,87.70
2018-12-06T23:20:53.773Z,87.70
2018-12-06T23:23:16.003Z,87.90
2018-12-06T23:25:38.257Z,87.80
2018-12-06T23:28:00.491Z,87.30
2018-12-06T23:30:22.808Z,87.40
2018-12-06T23:32:45.111Z,87.40
2018-12-06T23:35:07.349Z,87.30
2018-12-06T23:37:29.659Z,87.40
2018-12-06T23:39:51.945Z,87.20
2018-12-06T23:42:14.239Z,87.50
2018-12-06T23:44:36.527Z,87.90
2018-12-06T23:46:58.880Z,87.90
2018-12-06T23:49:21.190Z,87.50
2018-12-06T23:51:43.605Z,87.70
2018-12-06T23:54:05.960Z,87.40
2018-12-06T23:56:28.240Z,87.60
2018-12-06T23:58:50.601Z,87.90
